Time;durP1;ratioP1;P1;durP2;ratioP2;P2;SDS_P1;SDS_P2;PMS_P1;PMS_P2;Temp;Humidity;BMP_temperature;BMP_pressure;BME280_temperature;BME280_humidity;BME280_pressure;Samples;Min_cycle;Max_cycle;Signal;HPM_P1;HPM_P2
2023/11/13 00:00:22;;;;;;;23.27;5.30;;;10.00;99.90;;;;;;5036868;28;20438;-66
2023/11/13 00:02:48;;;;;;;22.25;4.88;;;10.00;99.90;;;;;;5036702;28;20486;-66
2023/11/13 00:05:15;;;;;;;20.58;5.88;;;10.00;99.90;;;;;;5036576;28;20052;-65
2023/11/13 00:07:42;;;;;;;30.10;5.55;;;10.00;99.90;;;;;;5036517;28;20386;-65
2023/11/13 00:10:09;;;;;;;27.95;5.43;;;10.10;99.90;;;;;;5036466;28;20049;-66
2023/11/13 00:12:36;;;;;;;23.88;5.20;;;10.10;99.90;;;;;;5037046;28;20045;-65
2023/11/13 00:15:04;;;;;;;21.05;5.70;;;10.10;99.90;;;;;;5036626;28;20053;-66
2023/11/13 00:17:30;;;;;;;25.42;5.75;;;10.10;99.90;;;;;;5036718;28;20129;-66
2023/11/13 00:19:57;;;;;;;25.90;5.65;;;10.10;99.90;;;;;;5036795;28;20034;-60
2023/11/13 00:22:24;;;;;;;25.65;5.85;;;10.10;99.90;;;;;;5036565;28;20033;-60
2023/11/13 00:24:51;;;;;;;27.45;6.28;;;10.10;99.90;;;;;;5036865;28;20471;-60
2023/11/13 00:27:19;;;;;;;34.58;6.68;;;10.20;99.90;;;;;;5036361;28;20863;-66
2023/11/13 00:29:45;;;;;;;26.52;5.25;;;10.20;99.90;;;;;;5018250;28;20052;-65
2023/11/13 00:32:12;;;;;;;23.23;5.63;;;10.20;99.90;;;;;;5036232;28;20134;-60
2023/11/13 00:34:39;;;;;;;29.02;5.80;;;10.20;99.90;;;;;;5036475;28;20065;-60
2023/11/13 00:37:06;;;;;;;21.73;5.32;;;10.30;99.90;;;;;;5036135;28;20134;-59
2023/11/13 00:39:33;;;;;;;26.45;5.88;;;10.30;99.90;;;;;;5018027;28;20383;-60
2023/11/13 00:42:00;;;;;;;27.63;6.18;;;10.30;99.90;;;;;;5036458;28;20049;-60
2023/11/13 00:44:26;;;;;;;29.58;6.50;;;10.30;99.90;;;;;;5035718;28;20080;-60
2023/11/13 00:46:53;;;;;;;29.17;6.28;;;10.30;99.90;;;;;;5036330;28;20505;-59
2023/11/13 00:49:20;;;;;;;29.50;5.63;;;10.30;99.90;;;;;;5018391;28;20521;-60
2023/11/13 00:51:47;;;;;;;30.10;6.28;;;10.30;99.90;;;;;;5036150;28;20445;-60
2023/11/13 00:54:16;;;;;;;34.80;6.72;;;10.30;99.90;;;;;;5035489;28;20552;-60
2023/11/13 00:56:44;;;;;;;29.70;6.10;;;10.40;99.90;;;;;;5018025;28;20045;-60
2023/11/13 00:59:11;;;;;;;32.05;7.00;;;10.40;99.90;;;;;;5035506;28;20423;-60
2023/11/13 01:01:38;;;;;;;30.75;6.40;;;10.40;99.90;;;;;;5035859;28;20112;-60
2023/11/13 01:04:05;;;;;;;31.02;6.30;;;10.40;99.90;;;;;;5018125;28;20132;-59
2023/11/13 01:06:32;;;;;;;31.70;6.10;;;10.40;99.90;;;;;;5035729;28;20037;-60
2023/11/13 01:08:59;;;;;;;33.00;6.25;;;10.40;99.90;;;;;;5035881;28;20061;-66
2023/11/13 01:11:26;;;;;;;29.48;6.35;;;10.40;99.90;;;;;;5035346;28;20071;-66
2023/11/13 01:13:53;;;;;;;33.17;6.78;;;10.50;99.90;;;;;;5035925;28;20049;-66
2023/11/13 01:16:20;;;;;;;31.15;6.75;;;10.50;99.90;;;;;;5017603;28;20049;-66
2023/11/13 01:18:53;;;;;;;31.88;6.35;;;10.50;99.90;;;;;;5034089;28;20037;-67
2023/11/13 01:21:20;;;;;;;30.73;6.05;;;10.50;99.90;;;;;;5017737;28;20509;-65
2023/11/13 01:23:47;;;;;;;34.70;7.20;;;10.50;99.90;;;;;;5017373;28;20049;-65
2023/11/13 01:26:13;;;;;;;33.08;6.25;;;10.50;99.90;;;;;;5017194;28;20065;-65
2023/11/13 01:28:40;;;;;;;36.22;6.20;;;10.50;99.90;;;;;;5034946;28;20045;-65
2023/11/13 01:31:07;;;;;;;32.25;5.55;;;10.50;99.90;;;;;;5017190;28;20053;-65
2023/11/13 01:33:34;;;;;;;29.35;5.90;;;10.60;99.90;;;;;;5035018;28;20045;-66
2023/11/13 01:36:00;;;;;;;35.50;7.22;;;10.50;99.90;;;;;;5017224;28;20395;-66
2023/11/13 01:38:27;;;;;;;30.73;6.40;;;10.60;99.90;;;;;;5034765;28;20033;-67
2023/11/13 01:40:54;;;;;;;25.20;5.45;;;10.60;99.90;;;;;;5017091;28;20068;-60
2023/11/13 01:43:21;;;;;;;27.42;5.60;;;10.60;99.90;;;;;;5034474;28;20479;-67
2023/11/13 01:45:48;;;;;;;24.95;5.28;;;10.60;99.90;;;;;;5035023;28;20041;-66
2023/11/13 01:48:14;;;;;;;28.70;5.45;;;10.60;99.90;;;;;;5035036;28;20041;-66
2023/11/13 01:50:41;;;;;;;29.23;5.68;;;10.60;99.90;;;;;;5017227;28;20434;-67
2023/11/13 01:53:09;;;;;;;23.25;4.88;;;10.60;99.90;;;;;;5034930;28;20045;-66
2023/11/13 01:55:36;;;;;;;26.35;4.70;;;10.60;99.90;;;;;;5034773;28;20094;-66
2023/11/13 01:58:03;;;;;;;29.90;5.45;;;10.50;99.90;;;;;;5034814;28;20042;-66
2023/11/13 02:00:31;;;;;;;20.50;3.95;;;10.50;99.90;;;;;;5017084;28;20095;-66
2023/11/13 02:02:58;;;;;;;20.95;4.07;;;10.50;99.90;;;;;;5016717;28;20111;-66
2023/11/13 02:05:25;;;;;;;19.02;4.07;;;10.50;99.90;;;;;;5034295;28;20115;-67
2023/11/13 02:07:51;;;;;;;18.90;3.65;;;10.50;99.90;;;;;;5017081;28;20076;-66
2023/11/13 02:10:20;;;;;;;19.58;3.95;;;10.50;99.90;;;;;;5016707;28;20401;-66
2023/11/13 02:12:47;;;;;;;16.63;3.90;;;10.40;99.90;;;;;;5049806;28;20045;-66
2023/11/13 02:15:15;;;;;;;13.88;3.17;;;10.40;99.90;;;;;;5016564;28;20056;-59
2023/11/13 02:17:42;;;;;;;14.60;3.05;;;10.40;99.90;;;;;;5016836;28;20043;-60
2023/11/13 02:20:08;;;;;;;12.27;2.67;;;10.40;99.90;;;;;;5034359;28;20462;-66
2023/11/13 02:22:35;;;;;;;13.68;2.72;;;10.30;99.90;;;;;;5016930;28;20544;-66
2023/11/13 02:25:02;;;;;;;13.00;3.03;;;10.30;99.90;;;;;;5016389;28;20217;-66
2023/11/13 02:27:29;;;;;;;14.15;3.00;;;10.30;99.90;;;;;;5034659;28;20045;-67
2023/11/13 02:29:56;;;;;;;15.73;3.20;;;10.30;99.90;;;;;;5034377;28;20049;-66
2023/11/13 02:32:23;;;;;;;17.15;3.08;;;10.30;99.90;;;;;;5034303;28;20038;-66
2023/11/13 02:34:50;;;;;;;11.07;2.83;;;10.20;99.90;;;;;;5016255;28;20417;-66
2023/11/13 02:37:17;;;;;;;13.20;2.67;;;10.20;99.90;;;;;;5034104;28;20045;-66
2023/11/13 02:39:45;;;;;;;11.50;2.90;;;10.20;99.90;;;;;;5034283;28;20079;-60
2023/11/13 02:42:12;;;;;;;16.63;3.53;;;10.20;99.90;;;;;;5034375;28;20044;-60
2023/11/13 02:44:39;;;;;;;12.50;3.53;;;10.20;99.90;;;;;;5034219;28;20176;-60
2023/11/13 02:47:06;;;;;;;13.18;3.30;;;10.20;99.90;;;;;;5016157;28;20033;-59
2023/11/13 02:49:34;;;;;;;15.25;3.10;;;10.20;99.90;;;;;;5033747;28;20036;-60
2023/11/13 02:52:01;;;;;;;13.02;2.88;;;10.20;99.90;;;;;;5016265;28;20045;-59
2023/11/13 02:54:28;;;;;;;16.35;3.83;;;10.20;99.90;;;;;;5033495;28;20375;-59
2023/11/13 02:56:54;;;;;;;15.68;3.20;;;10.20;99.90;;;;;;5032823;28;20494;-60
2023/11/13 02:59:21;;;;;;;12.80;3.65;;;10.20;99.90;;;;;;5033861;28;20048;-59
2023/11/13 03:01:48;;;;;;;17.08;3.60;;;10.20;99.90;;;;;;5033846;28;20053;-60
2023/11/13 03:04:15;;;;;;;15.75;2.85;;;10.20;99.90;;;;;;5033635;28;20038;-60
2023/11/13 03:06:42;;;;;;;17.85;3.63;;;10.20;99.90;;;;;;5016360;28;20468;-59
2023/11/13 03:09:09;;;;;;;15.93;3.20;;;10.20;99.90;;;;;;5015943;28;20363;-60
2023/11/13 03:11:35;;;;;;;16.27;4.00;;;10.20;99.90;;;;;;5015903;28;20486;-60
2023/11/13 03:14:02;;;;;;;16.45;3.63;;;10.20;99.90;;;;;;5033245;28;20120;-60
2023/11/13 03:16:29;;;;;;;19.20;3.88;;;10.20;99.90;;;;;;5033526;28;20129;-60
2023/11/13 03:18:56;;;;;;;18.60;4.13;;;10.20;99.90;;;;;;5033181;28;20108;-59
2023/11/13 03:21:23;;;;;;;20.52;3.53;;;10.20;99.90;;;;;;5033786;28;20045;-59
2023/11/13 03:23:50;;;;;;;18.05;3.75;;;10.20;99.90;;;;;;5033808;28;20045;-59
2023/11/13 03:26:17;;;;;;;18.65;3.90;;;10.20;99.90;;;;;;5016383;28;20076;-59
2023/11/13 03:28:44;;;;;;;18.40;4.35;;;10.20;99.90;;;;;;5033261;28;20050;-60
2023/11/13 03:31:10;;;;;;;21.92;4.13;;;10.20;99.90;;;;;;5015620;28;20087;-60
2023/11/13 03:33:37;;;;;;;17.90;4.30;;;10.20;99.90;;;;;;5033445;28;20056;-60
2023/11/13 03:36:04;;;;;;;15.63;3.78;;;10.20;99.90;;;;;;5033794;28;20430;-59
2023/11/13 03:38:31;;;;;;;18.65;3.90;;;10.20;99.90;;;;;;5032902;28;20052;-59
2023/11/13 03:40:57;;;;;;;17.25;3.75;;;10.20;99.90;;;;;;5015907;28;20046;-60
2023/11/13 03:43:24;;;;;;;18.00;3.92;;;10.20;99.90;;;;;;5015393;28;20053;-60
2023/11/13 03:45:51;;;;;;;18.33;3.47;;;10.20;99.90;;;;;;5032903;28;20041;-60
2023/11/13 03:48:18;;;;;;;17.08;3.53;;;10.20;99.90;;;;;;5032930;28;20053;-60
2023/11/13 03:50:45;;;;;;;18.83;4.00;;;10.10;99.90;;;;;;5033195;28;20068;-60
2023/11/13 03:53:11;;;;;;;15.30;3.50;;;10.10;99.90;;;;;;5033159;28;20045;-60
2023/11/13 03:55:38;;;;;;;19.63;3.28;;;10.10;99.90;;;;;;5033002;28;20054;-59
2023/11/13 03:58:05;;;;;;;13.82;3.38;;;10.10;99.90;;;;;;5033112;28;20045;-60
2023/11/13 04:00:34;;;;;;;17.27;3.88;;;10.10;99.90;;;;;;5033401;28;20063;-60
2023/11/13 04:03:01;;;;;;;15.68;3.28;;;10.10;99.90;;;;;;5033079;28;20046;-60
2023/11/13 04:05:29;;;;;;;12.27;3.00;;;10.10;99.90;;;;;;5032801;28;20506;-60
2023/11/13 04:07:55;;;;;;;10.27;2.83;;;10.10;99.90;;;;;;5017624;28;20053;-59
2023/11/13 04:10:22;;;;;;;12.55;3.17;;;10.10;99.90;;;;;;5018768;28;20103;-60
2023/11/13 04:12:50;;;;;;;11.13;2.90;;;10.10;99.90;;;;;;5036571;28;20043;-60
2023/11/13 04:15:17;;;;;;;10.35;2.53;;;10.10;99.90;;;;;;5018906;28;20041;-60
2023/11/13 04:17:44;;;;;;;10.90;2.47;;;10.20;99.90;;;;;;5018727;28;20046;-59
2023/11/13 04:20:14;;;;;;;8.20;2.38;;;10.20;99.90;;;;;;5018517;28;20037;-60
2023/11/13 04:22:41;;;;;;;11.40;2.33;;;10.20;99.90;;;;;;5036901;28;20419;-59
2023/11/13 04:25:08;;;;;;;10.52;2.55;;;10.20;99.90;;;;;;5036287;28;20748;-60
2023/11/13 04:27:35;;;;;;;10.40;2.00;;;10.20;99.90;;;;;;5036120;28;20045;-60
2023/11/13 04:30:02;;;;;;;6.50;1.77;;;10.20;99.90;;;;;;5036626;28;20561;-60
2023/11/13 04:32:29;;;;;;;7.68;2.42;;;10.20;99.90;;;;;;5018572;28;20049;-60
2023/11/13 04:34:56;;;;;;;5.57;1.30;;;10.20;99.90;;;;;;5036156;28;20498;-60
2023/11/13 04:37:23;;;;;;;6.28;1.45;;;10.20;99.90;;;;;;5036099;28;20534;-59
2023/11/13 04:39:50;;;;;;;3.90;1.17;;;10.20;99.90;;;;;;5035947;28;20103;-60
2023/11/13 04:42:17;;;;;;;2.95;0.98;;;10.20;99.90;;;;;;5036521;28;20038;-60
2023/11/13 04:44:44;;;;;;;4.13;1.10;;;10.20;99.90;;;;;;5036057;28;20168;-60
2023/11/13 04:47:11;;;;;;;2.80;0.80;;;10.20;99.90;;;;;;5036039;28;20068;-60
2023/11/13 04:49:38;;;;;;;2.90;0.88;;;10.30;99.90;;;;;;5036248;28;20049;-60
2023/11/13 04:52:06;;;;;;;1.75;0.57;;;10.30;99.90;;;;;;5036031;28;20136;-60
2023/11/13 04:54:33;;;;;;;3.45;0.60;;;10.30;99.90;;;;;;5018410;28;20136;-59
2023/11/13 04:57:00;;;;;;;2.05;0.47;;;10.30;99.90;;;;;;5035664;28;20048;-60
2023/11/13 04:59:27;;;;;;;1.50;0.40;;;10.30;99.90;;;;;;5035603;28;20372;-60
2023/11/13 05:01:54;;;;;;;0.98;0.40;;;10.40;99.90;;;;;;5035569;28;20075;-60
2023/11/13 05:04:21;;;;;;;0.77;0.30;;;10.40;99.90;;;;;;5036024;28;20446;-60
2023/11/13 05:06:48;;;;;;;1.13;0.40;;;10.40;99.90;;;;;;5035507;28;20037;-59
2023/11/13 05:09:15;;;;;;;0.90;0.40;;;10.40;99.90;;;;;;5035813;28;20430;-60
2023/11/13 05:11:42;;;;;;;0.88;0.32;;;10.40;99.90;;;;;;5036074;28;20049;-60
2023/11/13 05:14:09;;;;;;;0.65;0.25;;;10.50;99.90;;;;;;5035779;28;20069;-60
2023/11/13 05:16:36;;;;;;;1.35;0.45;;;10.50;99.90;;;;;;5035923;28;20428;-59
2023/11/13 05:19:03;;;;;;;1.25;0.30;;;10.50;99.90;;;;;;5034536;28;20041;-59
2023/11/13 05:21:30;;;;;;;0.73;0.20;;;10.50;99.90;;;;;;5035505;28;20048;-60
2023/11/13 05:23:57;;;;;;;1.08;0.30;;;10.50;99.90;;;;;;5035472;28;20518;-60
2023/11/13 05:26:23;;;;;;;1.50;0.28;;;10.60;99.90;;;;;;5018287;28;20096;-59
2023/11/13 05:28:50;;;;;;;0.88;0.28;;;10.60;99.90;;;;;;5035399;28;20045;-59
2023/11/13 05:31:17;;;;;;;0.52;0.20;;;10.60;99.90;;;;;;5035646;28;20103;-60
2023/11/13 05:33:44;;;;;;;1.17;0.20;;;10.70;99.90;;;;;;5035599;28;20116;-59
2023/11/13 05:36:11;;;;;;;0.90;0.28;;;10.70;99.90;;;;;;5035001;28;20132;-59
2023/11/13 05:38:38;;;;;;;0.70;0.30;;;10.70;99.90;;;;;;5034897;28;20360;-60
2023/11/13 05:41:05;;;;;;;1.83;0.30;;;10.70;99.90;;;;;;5035040;28;20061;-60
2023/11/13 05:43:32;;;;;;;0.57;0.20;;;10.80;99.90;;;;;;5035161;28;20054;-60
2023/11/13 05:45:59;;;;;;;1.95;0.45;;;10.90;99.90;;;;;;5035621;28;20048;-65
2023/11/13 05:48:27;;;;;;;1.77;0.45;;;10.90;99.90;;;;;;5034975;28;20037;-65
2023/11/13 05:50:55;;;;;;;1.40;0.30;;;11.00;99.90;;;;;;5017898;28;20042;-65
2023/11/13 05:53:22;;;;;;;2.58;0.50;;;11.10;99.90;;;;;;5034833;28;20053;-65
2023/11/13 05:55:49;;;;;;;3.58;0.60;;;11.30;99.90;;;;;;5034574;28;20540;-65
2023/11/13 05:58:16;;;;;;;5.18;1.13;;;11.40;99.90;;;;;;5034558;28;20447;-66
2023/11/13 06:00:43;;;;;;;8.43;1.58;;;11.60;99.90;;;;;;5034575;28;20125;-65
2023/11/13 06:03:10;;;;;;;9.10;1.60;;;11.70;99.90;;;;;;5034386;28;20461;-65
2023/11/13 06:05:37;;;;;;;8.63;2.42;;;11.90;99.90;;;;;;5034506;28;20069;-65
2023/11/13 06:08:04;;;;;;;11.85;2.10;;;12.10;99.90;;;;;;5034502;28;20903;-65
2023/11/13 06:10:30;;;;;;;15.77;2.22;;;12.20;99.90;;;;;;5034605;28;20489;-66
2023/11/13 06:12:58;;;;;;;10.27;2.55;;;12.20;99.90;;;;;;5034621;28;20041;-66
2023/11/13 06:15:25;;;;;;;16.30;2.95;;;12.40;99.90;;;;;;5035078;28;20044;-65
2023/11/13 06:17:52;;;;;;;12.20;2.88;;;12.50;99.90;;;;;;5017100;28;20497;-65
2023/11/13 06:20:19;;;;;;;10.30;2.17;;;12.60;99.90;;;;;;5034403;28;20140;-66
2023/11/13 06:22:47;;;;;;;14.38;3.00;;;12.60;99.90;;;;;;5035069;28;20128;-65
2023/11/13 06:25:15;;;;;;;13.45;2.60;;;12.80;99.90;;;;;;5035152;28;20044;-66
2023/11/13 06:27:41;;;;;;;14.02;2.50;;;12.80;99.90;;;;;;5035748;28;20083;-65
2023/11/13 06:30:09;;;;;;;15.10;2.60;;;12.90;99.90;;;;;;5034714;28;20044;-66
2023/11/13 06:32:36;;;;;;;12.32;3.00;;;12.90;99.90;;;;;;5034013;28;20120;-66
2023/11/13 06:35:03;;;;;;;8.70;2.35;;;13.00;99.90;;;;;;5034469;28;20050;-65
2023/11/13 06:37:30;;;;;;;9.63;2.28;;;13.00;99.90;;;;;;5034248;28;20080;-65
2023/11/13 06:39:57;;;;;;;9.25;1.83;;;13.00;99.90;;;;;;5033810;28;20454;-65
2023/11/13 06:42:23;;;;;;;9.80;2.38;;;13.00;99.90;;;;;;5034180;28;20034;-65
2023/11/13 06:44:50;;;;;;;8.90;1.80;;;13.10;99.90;;;;;;5034156;28;20496;-65
2023/11/13 06:47:17;;;;;;;10.02;2.42;;;13.10;99.90;;;;;;5034025;28;20045;-65
2023/11/13 06:49:45;;;;;;;5.53;2.13;;;13.10;99.90;;;;;;5033982;28;20048;-65
2023/11/13 06:52:12;;;;;;;6.80;1.70;;;13.20;99.90;;;;;;5034071;28;20532;-65
2023/11/13 06:54:40;;;;;;;13.27;2.55;;;13.20;99.90;;;;;;5033772;28;20038;-65
2023/11/13 06:57:07;;;;;;;7.07;1.48;;;13.20;99.90;;;;;;5034153;28;20581;-66
2023/11/13 06:59:34;;;;;;;7.72;1.77;;;13.30;99.90;;;;;;5033455;28;20041;-67
2023/11/13 07:02:01;;;;;;;9.88;1.50;;;13.30;99.90;;;;;;5033370;28;20041;-66
2023/11/13 07:04:28;;;;;;;7.63;1.50;;;13.30;99.90;;;;;;5033836;28;20071;-67
2023/11/13 07:06:55;;;;;;;7.75;1.60;;;13.40;99.90;;;;;;5033911;28;20038;-68
2023/11/13 07:09:21;;;;;;;7.78;1.45;;;13.40;99.90;;;;;;5033525;28;20403;-66
2023/11/13 07:11:48;;;;;;;10.48;2.10;;;13.40;99.90;;;;;;5033383;28;20046;-66
2023/11/13 07:14:15;;;;;;;10.45;1.90;;;13.40;99.90;;;;;;5015858;28;20096;-67
2023/11/13 07:16:42;;;;;;;10.18;2.25;;;13.50;99.90;;;;;;5015839;28;20088;-67
2023/11/13 07:19:09;;;;;;;11.75;2.30;;;13.50;99.90;;;;;;5033313;28;20045;-67
2023/11/13 07:21:36;;;;;;;9.95;1.90;;;13.50;99.90;;;;;;5033697;28;20125;-67
2023/11/13 07:24:06;;;;;;;13.20;2.30;;;13.50;99.90;;;;;;5033443;28;20045;-67
2023/11/13 07:26:33;;;;;;;11.98;2.58;;;13.50;99.90;;;;;;5033365;28;20038;-67
2023/11/13 07:28:59;;;;;;;7.88;1.60;;;13.60;99.90;;;;;;5033079;28;20041;-66
2023/11/13 07:31:26;;;;;;;10.80;2.60;;;13.60;99.90;;;;;;5033002;28;20042;-67
2023/11/13 07:33:54;;;;;;;8.95;2.30;;;13.60;99.90;;;;;;5033010;28;20467;-59
2023/11/13 07:36:21;;;;;;;12.73;2.58;;;13.60;99.90;;;;;;5033564;28;20046;-59
2023/11/13 07:38:48;;;;;;;8.07;2.40;;;13.60;99.90;;;;;;5033078;28;20053;-59
2023/11/13 07:41:16;;;;;;;8.35;2.08;;;13.60;99.90;;;;;;5033271;28;20112;-63
2023/11/13 07:43:43;;;;;;;8.90;1.60;;;13.60;99.90;;;;;;5036482;28;20053;-59
2023/11/13 07:46:10;;;;;;;8.05;2.03;;;13.70;99.90;;;;;;5037305;28;20042;-59
2023/11/13 07:48:36;;;;;;;13.07;2.53;;;13.70;99.90;;;;;;5037095;28;20064;-59
2023/11/13 07:51:03;;;;;;;9.13;2.03;;;13.70;99.90;;;;;;5036956;28;20041;-59
2023/11/13 07:53:30;;;;;;;10.38;2.20;;;13.70;99.90;;;;;;5037533;28;20064;-59
2023/11/13 07:55:57;;;;;;;10.20;2.35;;;13.80;99.90;;;;;;5037578;28;20037;-59
2023/11/13 07:58:25;;;;;;;13.18;2.97;;;13.80;99.90;;;;;;5036670;28;20100;-59
2023/11/13 08:00:53;;;;;;;10.13;2.83;;;13.80;99.90;;;;;;5037264;28;20033;-59
2023/11/13 08:03:20;;;;;;;7.70;1.70;;;13.80;99.90;;;;;;5037098;28;20493;-60
2023/11/13 08:05:47;;;;;;;10.60;2.95;;;13.80;99.90;;;;;;5037121;28;20049;-59
2023/11/13 08:08:15;;;;;;;6.90;2.55;;;13.90;99.90;;;;;;5036466;28;20050;-59
2023/11/13 08:10:41;;;;;;;8.63;2.03;;;13.90;99.90;;;;;;5036391;28;20041;-59
2023/11/13 08:13:08;;;;;;;8.13;2.10;;;13.90;99.90;;;;;;5036464;28;20037;-59
2023/11/13 08:15:35;;;;;;;8.80;1.63;;;13.90;99.90;;;;;;5036484;28;20041;-59
2023/11/13 08:18:03;;;;;;;7.05;1.75;;;13.80;99.90;;;;;;5036736;28;20132;-59
2023/11/13 08:20:30;;;;;;;8.38;1.70;;;13.90;99.90;;;;;;5036612;28;20429;-59
2023/11/13 08:22:57;;;;;;;4.53;1.40;;;13.90;99.90;;;;;;5019034;28;20041;-59
2023/11/13 08:25:24;;;;;;;5.97;1.60;;;13.90;99.90;;;;;;5036294;28;20462;-60
2023/11/13 08:27:54;;;;;;;6.15;1.40;;;14.00;99.90;;;;;;5036687;28;20052;-60
2023/11/13 08:30:22;;;;;;;4.43;1.10;;;14.00;99.90;;;;;;5036359;28;20060;-60
2023/11/13 08:32:52;;;;;;;6.10;1.40;;;14.00;99.90;;;;;;5035828;28;20064;-60
2023/11/13 08:35:19;;;;;;;5.50;1.23;;;14.00;99.90;;;;;;5035965;28;20099;-59
2023/11/13 08:37:46;;;;;;;6.55;1.30;;;14.10;99.90;;;;;;5036455;28;20038;-59
2023/11/13 08:40:13;;;;;;;8.23;1.73;;;14.10;99.90;;;;;;5035936;28;20041;-59
2023/11/13 08:42:41;;;;;;;6.45;1.48;;;14.10;99.90;;;;;;5035867;28;20194;-59
2023/11/13 08:45:12;;;;;;;5.55;1.42;;;14.10;99.90;;;;;;5035683;28;20049;-59
2023/11/13 08:47:39;;;;;;;3.83;1.20;;;14.10;99.90;;;;;;5036062;28;20042;-59
2023/11/13 08:50:09;;;;;;;7.18;1.13;;;14.10;99.90;;;;;;5035970;28;20042;-59
2023/11/13 08:52:36;;;;;;;5.38;1.00;;;14.20;99.90;;;;;;5035910;28;20095;-59
2023/11/13 08:55:03;;;;;;;5.20;1.38;;;14.10;99.90;;;;;;5035789;28;20069;-59
2023/11/13 08:57:30;;;;;;;4.00;1.00;;;14.20;99.90;;;;;;5036323;28;20045;-59
2023/11/13 08:59:56;;;;;;;4.75;1.00;;;14.20;99.90;;;;;;5036072;28;20425;-59
2023/11/13 09:02:25;;;;;;;4.50;0.95;;;14.30;99.90;;;;;;5035886;28;20052;-59
2023/11/13 09:04:52;;;;;;;4.28;1.13;;;14.20;99.90;;;;;;5035462;28;20103;-58
2023/11/13 09:07:20;;;;;;;6.68;1.17;;;14.30;99.90;;;;;;5035725;28;20123;-58
2023/11/13 09:09:54;;;;;;;5.95;1.23;;;14.30;99.90;;;;;;5035840;28;20570;-58
2023/11/13 09:12:21;;;;;;;5.50;1.40;;;14.30;99.90;;;;;;5036000;28;20098;-58
2023/11/13 09:14:48;;;;;;;8.32;1.60;;;14.30;99.90;;;;;;5035352;28;20049;-58
2023/11/13 09:17:17;;;;;;;5.97;1.67;;;14.30;99.90;;;;;;5035577;28;20116;-59
2023/11/13 09:19:44;;;;;;;6.97;1.73;;;14.30;99.90;;;;;;5035377;28;20068;-59
2023/11/13 09:22:12;;;;;;;10.20;1.83;;;14.40;99.90;;;;;;5035757;28;20053;-58
2023/11/13 09:24:39;;;;;;;12.05;2.53;;;14.40;99.90;;;;;;5035645;28;20038;-58
2023/11/13 09:27:09;;;;;;;11.25;2.65;;;14.40;99.90;;;;;;5035415;28;20040;-58
2023/11/13 09:29:38;;;;;;;9.65;2.63;;;14.40;99.90;;;;;;5034947;28;20096;-59
2023/11/13 09:32:07;;;;;;;11.27;2.65;;;14.40;99.90;;;;;;5035209;28;20049;-59
2023/11/13 09:34:34;;;;;;;12.45;2.78;;;14.30;99.90;;;;;;5017012;28;20466;-59
2023/11/13 09:37:04;;;;;;;13.18;2.75;;;14.40;99.90;;;;;;5034839;28;20054;-64
2023/11/13 09:39:32;;;;;;;13.73;3.00;;;14.40;99.90;;;;;;5034694;28;20037;-65
2023/11/13 09:41:59;;;;;;;15.50;3.75;;;14.50;99.90;;;;;;5035122;28;20041;-65
2023/11/13 09:44:26;;;;;;;16.10;3.45;;;14.50;99.90;;;;;;5034684;28;20049;-66
2023/11/13 09:46:53;;;;;;;14.88;3.40;;;14.60;99.90;;;;;;5034994;28;20065;-59
2023/11/13 09:49:19;;;;;;;15.65;3.63;;;14.60;99.90;;;;;;5034514;28;20128;-58
2023/11/13 09:51:47;;;;;;;18.27;4.32;;;14.60;99.90;;;;;;5034876;28;20076;-58
2023/11/13 09:54:14;;;;;;;18.27;3.70;;;14.60;99.90;;;;;;5035148;28;20052;-59
2023/11/13 09:56:41;;;;;;;19.63;4.38;;;14.60;99.90;;;;;;5035020;28;20109;-58
2023/11/13 09:59:08;;;;;;;19.92;4.47;;;14.60;99.90;;;;;;5034400;28;20049;-59
2023/11/13 10:01:35;;;;;;;17.98;4.20;;;14.50;99.90;;;;;;5034836;28;20041;-59
2023/11/13 10:04:04;;;;;;;21.17;4.45;;;14.50;99.90;;;;;;5034730;28;20384;-58
2023/11/13 10:06:32;;;;;;;22.17;4.90;;;14.40;99.90;;;;;;5016588;28;20359;-59
2023/11/13 10:08:59;;;;;;;23.48;5.40;;;14.40;99.90;;;;;;5034302;28;20417;-59
2023/11/13 10:11:29;;;;;;;23.73;4.32;;;14.40;99.90;;;;;;5034511;28;20056;-58
2023/11/13 10:13:56;;;;;;;20.98;5.10;;;14.40;99.90;;;;;;5034309;28;20474;-59
2023/11/13 10:16:23;;;;;;;22.95;5.28;;;14.50;99.90;;;;;;5034453;28;20044;-59
2023/11/13 10:18:50;;;;;;;22.52;4.47;;;14.60;99.90;;;;;;5034132;28;20486;-59
2023/11/13 10:21:17;;;;;;;24.42;5.10;;;14.70;99.90;;;;;;5033993;28;20041;-59
2023/11/13 10:23:43;;;;;;;18.05;5.22;;;14.80;99.90;;;;;;5034014;28;20041;-59
2023/11/13 10:26:14;;;;;;;22.38;5.28;;;14.80;99.90;;;;;;5034110;28;20055;-59
2023/11/13 10:28:41;;;;;;;23.45;5.95;;;14.90;99.90;;;;;;5034361;28;20061;-59
2023/11/13 10:31:12;;;;;;;24.10;5.28;;;14.90;99.90;;;;;;5034228;28;20038;-58
2023/11/13 10:33:40;;;;;;;22.85;5.40;;;14.90;99.90;;;;;;5034535;28;20497;-59
2023/11/13 10:36:10;;;;;;;25.90;5.93;;;14.90;99.90;;;;;;5016707;28;20136;-59
2023/11/13 10:38:37;;;;;;;25.83;5.90;;;15.00;99.90;;;;;;5015942;28;20045;-59
2023/11/13 10:41:05;;;;;;;28.23;5.85;;;15.10;99.90;;;;;;5033810;28;20521;-59
2023/11/13 10:43:32;;;;;;;20.35;5.72;;;15.20;99.90;;;;;;5033574;28;20088;-59
2023/11/13 10:46:00;;;;;;;25.92;5.95;;;15.20;99.90;;;;;;5034444;28;20092;-60
2023/11/13 10:48:28;;;;;;;24.30;5.78;;;15.30;99.90;;;;;;5033962;28;20095;-59
2023/11/13 10:50:55;;;;;;;27.92;5.63;;;15.30;99.90;;;;;;5033890;28;20457;-59
2023/11/13 10:53:22;;;;;;;24.30;6.45;;;15.30;99.90;;;;;;5016375;28;20135;-59
2023/11/13 10:55:49;;;;;;;26.88;6.68;;;15.40;99.90;;;;;;5033678;28;20041;-58
2023/11/13 10:58:16;;;;;;;23.75;5.85;;;15.40;99.90;;;;;;5016527;28;20123;-60
2023/11/13 11:00:43;;;;;;;27.70;5.72;;;15.50;99.90;;;;;;5033713;28;20052;-60
2023/11/13 11:03:09;;;;;;;26.90;6.07;;;15.40;99.90;;;;;;5033355;28;20478;-60
2023/11/13 11:05:36;;;;;;;25.92;6.13;;;15.40;99.90;;;;;;5033767;28;20083;-60
2023/11/13 11:08:03;;;;;;;25.60;6.30;;;15.20;99.90;;;;;;5033382;28;20453;-60
2023/11/13 11:10:30;;;;;;;21.38;5.05;;;15.00;99.90;;;;;;5033847;28;20382;-60
2023/11/13 11:13:00;;;;;;;22.92;4.80;;;14.40;99.90;;;;;;5033828;28;20041;-66
2023/11/13 11:15:27;;;;;;;21.13;4.63;;;13.90;99.90;;;;;;5033745;28;20128;-66
2023/11/13 11:17:54;;;;;;;19.45;4.50;;;13.70;99.90;;;;;;5032929;28;20453;-66
2023/11/13 11:20:21;;;;;;;19.02;3.85;;;13.60;99.90;;;;;;5033197;28;20042;-66
2023/11/13 11:22:47;;;;;;;20.58;4.93;;;13.50;99.90;;;;;;5033685;28;20056;-66
2023/11/13 11:25:17;;;;;;;22.70;4.38;;;13.40;99.90;;;;;;5033626;28;20048;-66
2023/11/13 11:27:46;;;;;;;16.27;4.38;;;13.20;99.90;;;;;;5015845;28;20041;-66
2023/11/13 11:30:12;;;;;;;20.88;5.10;;;13.20;99.90;;;;;;5033948;28;20045;-66
2023/11/13 11:32:39;;;;;;;20.73;4.45;;;13.10;99.90;;;;;;5033564;28;20120;-67
2023/11/13 11:35:06;;;;;;;16.77;3.97;;;13.00;99.90;;;;;;5033251;28;20045;-66
2023/11/13 11:37:33;;;;;;;15.70;3.45;;;13.00;99.90;;;;;;5033213;28;20077;-66
2023/11/13 11:40:03;;;;;;;16.27;3.20;;;12.90;99.90;;;;;;5033590;28;20037;-66
2023/11/13 11:42:32;;;;;;;11.15;2.60;;;12.90;99.90;;;;;;5033398;28;20410;-66
2023/11/13 11:44:59;;;;;;;13.15;2.97;;;12.80;99.90;;;;;;5033907;28;20076;-66
2023/11/13 11:47:26;;;;;;;12.57;2.30;;;12.80;99.90;;;;;;5033309;28;20045;-66
2023/11/13 11:49:54;;;;;;;12.98;2.60;;;12.80;99.90;;;;;;5032946;28;20517;-66
2023/11/13 11:52:20;;;;;;;11.00;2.55;;;12.80;99.90;;;;;;5033041;28;20056;-66
2023/11/13 11:54:47;;;;;;;12.75;2.42;;;12.70;99.90;;;;;;5033482;28;20056;-66
2023/11/13 11:57:14;;;;;;;12.95;2.17;;;12.80;99.90;;;;;;5033608;28;20046;-66
2023/11/13 11:59:42;;;;;;;9.10;2.35;;;12.80;99.90;;;;;;5015198;28;20116;-66
2023/11/13 12:02:10;;;;;;;14.70;2.50;;;12.80;99.90;;;;;;5033582;28;20037;-66
2023/11/13 12:04:37;;;;;;;11.50;2.60;;;12.80;99.90;;;;;;5033014;28;20034;-66
2023/11/13 12:07:14;;;;;;;10.00;2.20;;;12.80;99.90;;;;;;5015748;28;20124;-66
2023/11/13 12:09:42;;;;;;;11.95;2.30;;;12.90;99.90;;;;;;5032963;28;20360;-59
2023/11/13 12:12:09;;;;;;;12.18;2.08;;;12.90;99.90;;;;;;5033287;28;20048;-65
2023/11/13 12:14:36;;;;;;;16.98;3.08;;;13.00;99.90;;;;;;5033079;28;20128;-65
2023/11/13 12:17:03;;;;;;;14.18;3.45;;;13.00;99.90;;;;;;5033036;28;20463;-65
2023/11/13 12:19:30;;;;;;;11.18;2.17;;;13.00;99.90;;;;;;5033045;28;20038;-65
2023/11/13 12:21:57;;;;;;;11.20;2.78;;;13.10;99.90;;;;;;5032715;28;20478;-65
2023/11/13 12:24:25;;;;;;;17.25;2.42;;;13.30;99.90;;;;;;5032829;28;20037;-65
2023/11/13 12:26:56;;;;;;;11.32;2.33;;;13.40;99.90;;;;;;5032767;28;20053;-65
2023/11/13 12:29:22;;;;;;;10.07;2.83;;;13.50;99.90;;;;;;5035703;28;20132;-66
2023/11/13 12:31:49;;;;;;;12.48;2.42;;;13.50;99.90;;;;;;5036266;28;20041;-65
2023/11/13 12:34:16;;;;;;;10.23;2.17;;;13.50;99.90;;;;;;5036140;28;20121;-65
2023/11/13 12:36:46;;;;;;;14.82;3.28;;;13.50;99.90;;;;;;5036196;28;20041;-66
2023/11/13 12:39:18;;;;;;;11.60;2.58;;;13.50;99.90;;;;;;5036123;28;20095;-66